BJCROCKY MOUNTAIN METROPOLITAN
METARs for nearby airports:
N 0 5673' KBJC 162345Z 27014KT 30SM SCT060 BKN150 BKN220 07/M03 A2995
NE 6 5119' KEIK 170031Z 07003KT 10SM CLR 03/M04 A3001
NW 9 5288' KBDU 170031Z 26008KT 10SM SCT050 SCT060 OVC090 07/M03 A2995
N 15 5055' KLMO 170035Z 09006KT 10SM SCT080 SCT085 SCT110 05/M05 A2998
E 20 5433' KDEN 170053Z 09005KT 10SM SCT150 BKN200 03/M04 A2996
SE 20 5663' KBKF 162358Z 10005KT 10SM SCT090 BKN250 04/M04 A2995
SE 23 5885' KAPA 170053Z 15006KT 10SM SCT060 BKN085 BKN110 05/M04 A2997
E 27 5512' KFTG 170052Z 07004KT 10SM SCT120 BKN150 BKN220 04/M04 A2998
N 32 5015' KFNL 162356Z 15004KT 10SM FEW080 OVC095 05/M07 A2995
W 38 8207' KGNB 170030Z 27008KT 5SM -SN SCT011 BKN023 OVC042 M02/M03 A3008
NE 38 4696' KGXY 162356Z 21004KT 10SM BKN110 03/M07 A2996
S 57 6576' KAFF 162358Z 34006KT 10SM BKN075 06/M04 A2994
SE 63 6873' KFLY 170035Z 36009KT 310V010 10SM SCT026 BKN070 OVC090 06/M06 A2999
NE 65 4595' KFMM 170055Z 28005KT 10SM 00/M07 A2996
S 69 6187' KCOS 162354Z 35007KT 10SM BKN075 BKN230 08/M06 A2995
SW 69 9933' KLXV 170053Z 29016G27KT 2SM -SN BKN022 BKN027 OVC070 M05/M08 A3009
S 75 5874' KFCS 162358Z 25005KT 10SM SCT090 09/M06 A2993
N 76 6159' KCYS 170053Z 31015KT 10SM CLR 03/M03 A2996
SE 77 5374' KLIC 162355Z 31005KT 10SM CLR 02/M04 A2994
SW 80 7950' KAEJ 170035Z 25009KT 10SM SCT065 SCT075 SCT120 00/M04 A3007
W 84 6547' KEGE 162356Z 23012G16KT 10SM BKN055 02/M03 A3013
N 88 7283' KLAR 170053Z 00000KT 10SM CLR M02/M06 A2998
NW 88 6882' KSBS 170035Z 28003KT 2 1/2SM BKN012 OVC019 M01/M01 A3011
E 88 4715' KAKO 170053Z 29008KT 10SM CLR 00/M06 A2995
SW 90 7837' KASE 170053Z 33005KT 10SM BKN055 BKN075 M01/M03 A3012
SW 93 7523' KANK 170055Z 25012KT 10SM SCT055 SCT070 03/M05 A3015
NE 94 4037' KSTK 170050Z 02007KT 10SM CLR A2994
TAFs for nearby airports:
N 0 5673' KBJC TAF KBJC 162320Z 1700/1724 26015KT P6SM FEW060 BKN150
  FM170200 26009KT P6SM FEW060 SCT150 BKN200
  FM170800 24009KT P6SM FEW220
  FM172100 VRB04KT P6SM FEW050 SCT220
  FM172200 25006KT P6SM SCT140 BKN200
E 20 5433' KDEN TAF KDEN 162320Z 1700/1806 02006KT P6SM FEW090 BKN150
  FM170200 24006KT P6SM BKN200
  FM170400 22008KT P6SM SCT220
  FM172200 18008KT P6SM SCT140 BKN200
  FM180300 21008KT P6SM BKN140
SE 20 5663' KBKF TAF TAF KBKF 161709Z 1617/1723 20009KT 9999 FEW150 QNH2991INS
  BECMG 1705/1706 VRB06KT 9999 FEW200 QNH2999INS
  BECMG 1713/1714 21012KT 9999 SCT250 QNH2989INS TX08/1621Z TNM03/1712Z
SE 23 5885' KAPA TAF KAPA 162320Z 1700/1724 04004KT P6SM FEW070 SCT090 BKN140
  FM170200 24007KT P6SM FEW090 BKN200
  FM170400 19006KT P6SM SCT220
  FM172200 18008KT P6SM SCT140 BKN200
S 57 6576' KAFF TAF KAFF 162007Z 1620/1802 27012G20KT 9999 SCT050 520009 QNH2988INS WND 220V340
  BECMG 1621/1622 31012KT 9999 SCT050 520009 QNH2993INS WND 240V350
  BECMG 1702/1703 27016G25KT 9999 SCT150 SCT200 WS010/27045KT 560104 QNH3002INS
  TEMPO 1704/1712 27020G35KT
  BECMG 1712/1713 23012G25KT 9999 SCT150 SCT200 WS010/27040KT 530109 QNH3009INS
  BECMG 1715/1716 23012KT 9999 SCT150 SCT200 520009 QNH3009INS
  BECMG 1719/1720 20012KT 9999 FEW270 QNH2992INS TX10/1720Z TNM02/1711Z LAST NO
  AMDS AFT 1700 NEXT 1712
S 69 6187' KCOS TAF
  AMD KCOS 170009Z 1700/1724 35007KT P6SM FEW100 SCT200
  FM171700 16005KT P6SM SCT100 SCT200
  FM172000 18012KT P6SM SCT100 SCT200
S 75 5874' KFCS TAF KFCS 162109Z 1621/1803 28009KT 9999 FEW150 QNH2985INS
  BECMG 1705/1706 VRB06KT 9999 FEW200 QNH2999INS
  BECMG 1717/1718 21012KT 9999 SCT250 QNH2989INS TX16/1623Z TNM03/1712Z
N 76 6159' KCYS KCYS 162330Z 1700/1724 30013G23KT P6SM OVC070
  FM170200 29015G25KT P6SM BKN180 WS020/29045KT
  FM171300 27010KT P6SM SCT250
  FM172200 23011KT P6SM BKN220
W 84 6547' KEGE TAF KEGE 162320Z 1700/1724 24014KT P6SM VCSH FEW060 BKN080 OVC090
  FM170200 24008KT P6SM VCSH SCT035 BKN080
  FM170500 21006KT P6SM SCT035 BKN060
  FM170800 18005KT P6SM SCT040 BKN060
  FM171500 VRB03KT P6SM SCT070 BKN090
N 88 7283' KLAR KLAR 162330Z 1700/1724 27010KT P6SM OVC080
  FM170200 27021G31KT P6SM SCT200 WS020/28045KT
  FM171700 25015G25KT P6SM SCT250
  FM172100 24015KT P6SM SCT190
SW 90 7837' KASE TAF
  AMD KASE 170053Z 1701/1724 35007KT P6SM VCSH FEW014 OVC040
  FM170500 24005KT P6SM VCSH OVC030
  FM170700 21005KT P6SM SCT030 BKN040
  FM171300 20006KT P6SM SCT020 BKN060
  FM172100 26006KT P6SM SCT040 BKN045
Area forecast:
000
FAUS45 KKCI 101945
FA5W  
SLCC FA 101945
SYNOPSIS AND VFR CLDS/WX
SYNOPSIS VALID UNTIL 111400
CLDS/WX VALID UNTIL 110800...OTLK VALID 110800-111400
ID MT WY NV UT CO AZ NM
.
SEE AIRMET SIERRA FOR IFR CONDS AND MTN OBSCN.
TS IMPLY SEV OR GTR TURB SEV ICE LLWS AND IFR CONDS.
NON MSL HGTS DENOTED BY AGL OR CIG.
.
SYNOPSIS...UPR LVL TROF WAS LOCATED NR 130W. MOIST SWLY FLOW
EXTDS FROM PAC NW EWD INTO NRN ROCKIES. HIGH PRES RIDGE WAS OVR
MUCH OF THE REST OF THE AREA. BY 14Z...UPR LVL TROF WILL EXTD
FROM WA-OR SWD INTO CA.  ..STREIB..
.
ID
NRN...SCT140 BKN CI. BECMG 0205 OVC140 LYRD FL240. BECMG 0508
   BKN090 OVC120 LYRD FL240. OTLK...VFR.
CNTRL MTNS...SCT150 BKN CI. OTLK...VFR.
SWRN...SCT CI. OTLK...VFR.
SERN...BKN CI. BECMG 0205 SKC OCNL SCT CI. OTLK...VFR.
.
MT
CONTDVD WWD...BKN CI. OTLK...VFR.
SWRN MTNS...BKN CI GRDLY BECMG BKN-SCT CI. OTLK...VFR.
ERN SLOPES OF CONTDVD...SCT140 BKN-OVC CI. OTLK...VFR.
CNTRL...BKN CI. OTLK...VFR.
ERN...FEW-SCT CI. OTLK...VFR.
.
WY
MTNS AND WEST...SCT-BKN CI. OTLK...VFR.
PLAINS...
   NRN AND CNTRL PTNS...SKC OCNL SCT CI. OTLK...VFR.
   SRN PTNS...SCT CI. OTLK...VFR.
.
NV
NWRN...SKC. OCNL SCT CI. OTLK...VFR.
NERN...SKC. OCNL SCT CI. OTLK...VFR.
SRN...SKC. OCNL SCT CI. OTLK...VFR.
.
UT
NWRN...SKC OCNL SCT CI. OTLK...VFR.
NERN...SKC OCNL FEW CI. OTLK...VFR.
SRN...SKC. OTLK...VFR.
.
CO
MTNS AND WEST...
   NRN PTNS...SKC OCNL FEW CI. OTLK...VFR.
   SRN PTNS...SKC. OTLK...VFR.
PLAINS...
   NRN PTNS...SKC OCNL FEW CI. OTLK...VFR.
   SRN PTNS...SKC. OTLK...VFR.
.
AZ
NRN HLF...SKC OCNL FEW CI. OTLK...VFR.
SWRN...FEW CI. OTLK...VFR.
SERN...SKC. OTLK...VFR.
.
NM
MTNS AND WEST...SKC OCNL FEW CI. OTLK...VFR.
PLAINS...
   NRN AND CNTRL...SKC. OTLK...VFR.
   SRN... SKC OCNL FEW120-140 TIL 00Z. OTLK...VFR.
.
THE AREA FORECAST WILL TERMINATE AT 2359Z ON 10 OCTOBER 2017. IN
PLACE OF THE AREA FORECAST...PLEASE SEE THE GRAPHICAL FORECAST AT
WWW.AVIATIONWEATHER.GOV/GFA. GRAPHICAL AND TEXT AIRMETS WILL
CONTINUE AS REGULARLY SCHEDULED.
....

Shortcut to this page: http://wxbay.com.

Data may contain errors.